Hummels Store, Pennsylvania
Current Conditions -  °F | °C
As of 10:54 AM on Sunday 25 Jan 2015 (Local Time) from KRDG Reporting Station
Overcast Overcast  
Wind Chill: 33°   Ceiling: 3500
Heat Index: 39°   Visibility: 10mi
Dew Point: 29°   Wind: 9mph
Humidity: 67%   Direction: 240°WSW
Pressure: 29.79"   Gusts: NA
Location:  40.2411°N, 75.9752°W
Report Text: KRDG 251554Z AUTO 24008KT 10SM OVC035 04/M02 A2979 RMK AO2 SLP096 T00391017
Loading
Personal Weather Stations






























Interactive Weather Map New forecast layout! Learn more

10-Day Weather Forecast

Advertisements
Track Severe Weather on mobile